createdAt,value
2018-10-18T00:02:06.959Z,100571.64
2018-10-18T00:04:35.702Z,100571.43
2018-10-18T00:07:04.551Z,100565.98
2018-10-18T00:09:33.199Z,100565.66
2018-10-18T00:12:01.820Z,100563.89
2018-10-18T00:14:30.540Z,100562.45
2018-10-18T00:16:59.077Z,100562.11
2018-10-18T00:19:27.685Z,100565.45
2018-10-18T00:21:56.228Z,100566.78
2018-10-18T00:24:24.788Z,100567.03
2018-10-18T00:26:53.364Z,100571.78
2018-10-18T00:29:21.989Z,100574.12
2018-10-18T00:31:50.585Z,100568.36
2018-10-18T00:34:19.093Z,100571.64
2018-10-18T00:36:47.776Z,100574.05
2018-10-18T00:39:16.399Z,100575.83
2018-10-18T00:41:45.280Z,100573.06
2018-10-18T00:44:13.996Z,100570.73
2018-10-18T00:46:42.560Z,100566.56
2018-10-18T00:49:11.148Z,100572.98
2018-10-18T00:51:39.694Z,100569.33
2018-10-18T00:54:08.744Z,100571.00
2018-10-18T00:56:37.348Z,100565.45
2018-10-18T00:59:05.956Z,100569.02
2018-10-18T01:01:34.487Z,100566.56
2018-10-18T01:04:03.161Z,100566.98
2018-10-18T01:06:31.972Z,100562.87
2018-10-18T01:09:00.528Z,100573.06
2018-10-18T01:11:29.152Z,100568.59
2018-10-18T01:13:57.982Z,100570.59
2018-10-18T01:16:26.572Z,100570.41
2018-10-18T01:18:55.085Z,100566.50
2018-10-18T01:21:23.774Z,100564.58
2018-10-18T01:23:52.628Z,100558.47
2018-10-18T01:26:21.153Z,100562.87
2018-10-18T01:28:49.979Z,100560.81
2018-10-18T01:31:18.651Z,100567.45
2018-10-18T01:33:47.225Z,100568.31
2018-10-18T01:36:16.013Z,100564.62
2018-10-18T01:38:44.519Z,100572.48
2018-10-18T01:41:13.084Z,100565.94
2018-10-18T01:43:41.838Z,100568.59
2018-10-18T01:46:10.792Z,100570.06
2018-10-18T01:48:39.345Z,100570.97
2018-10-18T01:51:08.054Z,100569.27
2018-10-18T01:53:36.732Z,100569.27
2018-10-18T01:56:05.724Z,100565.66
2018-10-18T01:58:34.452Z,100561.79
2018-10-18T02:01:03.010Z,100560.22
2018-10-18T02:03:31.588Z,100558.50
2018-10-18T02:06:00.350Z,100563.81
2018-10-18T02:08:29.040Z,100557.25
2018-10-18T02:10:57.624Z,100566.19
2018-10-18T02:13:26.338Z,100557.67
2018-10-18T02:15:55.251Z,100558.69
2018-10-18T02:18:24.185Z,100561.20
2018-10-18T02:20:53.152Z,100568.53
2018-10-18T02:23:21.689Z,100563.67
2018-10-18T02:25:50.208Z,100571.88
2018-10-18T02:28:18.895Z,100562.42
2018-10-18T02:30:47.501Z,100565.20
2018-10-18T02:33:16.097Z,100563.46
2018-10-18T02:35:44.844Z,100564.02
2018-10-18T02:38:13.421Z,100557.73
2018-10-18T02:40:42.039Z,100558.74
2018-10-18T02:43:10.881Z,100549.59
2018-10-18T02:45:39.628Z,100552.88
2018-10-18T02:48:08.245Z,100555.98
2018-10-18T02:50:36.765Z,100557.03
2018-10-18T02:53:05.485Z,100551.66
2018-10-18T02:55:34.064Z,100551.52
2018-10-18T02:58:02.710Z,100549.91
2018-10-18T03:00:31.319Z,100552.28
2018-10-18T03:02:59.908Z,100554.02
2018-10-18T03:05:28.710Z,100557.71
2018-10-18T03:07:57.483Z,100554.61
2018-10-18T03:10:26.010Z,100559.91
2018-10-18T03:12:54.708Z,100562.17
2018-10-18T03:15:23.249Z,100560.46
2018-10-18T03:17:51.866Z,100563.78
2018-10-18T03:20:20.524Z,100566.80
2018-10-18T03:22:49.161Z,100561.81
2018-10-18T03:25:17.732Z,100563.63
2018-10-18T03:27:46.412Z,100568.45
2018-10-18T03:30:15.170Z,100566.11
2018-10-18T03:32:43.617Z,100563.97
2018-10-18T03:35:12.242Z,100567.79
2018-10-18T03:37:41.037Z,100562.63
2018-10-18T03:40:10.268Z,100563.14
2018-10-18T03:42:38.860Z,100565.53
2018-10-18T03:45:07.869Z,100573.19
2018-10-18T03:47:36.413Z,100569.90
2018-10-18T03:50:05.093Z,100574.27
2018-10-18T03:52:33.736Z,100569.41
2018-10-18T03:55:02.317Z,100571.34
2018-10-18T03:57:30.969Z,100575.50
2018-10-18T03:59:59.531Z,100576.26
2018-10-18T04:02:28.121Z,100570.41
2018-10-18T04:04:56.752Z,100573.30
2018-10-18T04:07:25.372Z,100575.59
2018-10-18T04:09:53.929Z,100579.48
2018-10-18T04:12:22.631Z,100573.09
2018-10-18T04:14:51.190Z,100576.13
2018-10-18T04:17:19.813Z,100576.22
2018-10-18T04:19:48.557Z,100565.50
2018-10-18T04:22:17.145Z,100575.34
2018-10-18T04:24:45.761Z,100573.96
2018-10-18T04:27:14.628Z,100565.80
2018-10-18T04:29:43.194Z,100563.63
2018-10-18T04:32:11.752Z,100569.69
2018-10-18T04:34:40.418Z,100569.36
2018-10-18T04:37:09.065Z,100575.66
2018-10-18T04:39:37.568Z,100582.78
2018-10-18T04:42:06.568Z,100585.52
2018-10-18T04:44:35.182Z,100574.47
2018-10-18T04:47:03.789Z,100582.53
2018-10-18T04:49:32.505Z,100587.91
2018-10-18T04:52:01.229Z,100587.03
2018-10-18T04:54:29.760Z,100594.85
2018-10-18T04:56:58.560Z,100593.64
2018-10-18T04:59:27.288Z,100598.17
2018-10-18T05:01:55.849Z,100605.45
2018-10-18T05:04:24.465Z,100603.70
2018-10-18T05:06:53.076Z,100607.14
2018-10-18T05:09:21.729Z,100610.16
2018-10-18T05:11:50.372Z,100614.22
2018-10-18T05:14:18.987Z,100619.60
2018-10-18T05:16:47.678Z,100616.66
2018-10-18T05:19:16.609Z,100617.01
2018-10-18T05:21:45.250Z,100617.93
2018-10-18T05:24:13.849Z,100613.52
2018-10-18T05:26:42.600Z,100617.53
2018-10-18T05:29:11.248Z,100625.48
2018-10-18T05:31:39.856Z,100633.22
2018-10-18T05:34:08.584Z,100627.05
2018-10-18T05:36:37.133Z,100634.92
2018-10-18T05:39:09.725Z,100632.83
2018-10-18T05:41:38.319Z,100633.78
2018-10-18T05:44:06.948Z,100638.58
2018-10-18T05:46:35.691Z,100644.00
2018-10-18T05:49:04.326Z,100652.45
2018-10-18T05:51:32.840Z,100653.75
2018-10-18T05:54:01.709Z,100660.70
2018-10-18T05:56:30.188Z,100661.00
2018-10-18T05:58:58.812Z,100666.75
2018-10-18T06:01:27.373Z,100672.43
2018-10-18T06:03:55.980Z,100674.58
2018-10-18T06:06:24.800Z,100679.00
2018-10-18T06:08:53.615Z,100681.60
2018-10-18T06:11:27.760Z,100681.55
2018-10-18T06:13:56.570Z,100688.89
2018-10-18T06:16:26.152Z,100694.56
2018-10-18T06:18:54.803Z,100694.61
2018-10-18T06:21:24.299Z,100697.52
2018-10-18T06:23:52.892Z,100701.84
2018-10-18T06:26:21.660Z,100701.20
2018-10-18T06:28:51.441Z,100706.12
2018-10-18T06:31:19.973Z,100702.51
2018-10-18T06:33:49.172Z,100706.53
2018-10-18T06:36:17.716Z,100705.84
2018-10-18T06:38:46.373Z,100713.59
2018-10-18T06:41:15.005Z,100709.82
2018-10-18T06:43:43.696Z,100714.92
2018-10-18T06:46:13.916Z,100716.83
2018-10-18T06:48:42.956Z,100717.13
2018-10-18T06:51:11.952Z,100722.20
2018-10-18T06:53:41.545Z,100721.52
2018-10-18T06:56:10.274Z,100724.38
2018-10-18T06:58:38.988Z,100724.73
2018-10-18T07:01:07.576Z,100719.23
2018-10-18T07:03:36.168Z,100721.66
2018-10-18T07:06:05.092Z,100726.80
2018-10-18T07:08:33.635Z,100718.34
2018-10-18T07:11:02.432Z,100718.87
2018-10-18T07:13:30.908Z,100725.72
2018-10-18T07:15:59.628Z,100725.61
2018-10-18T07:18:28.215Z,100727.59
2018-10-18T07:20:56.872Z,100726.12
2018-10-18T07:23:25.403Z,100724.30
2018-10-18T07:25:54.152Z,100731.05
2018-10-18T07:28:22.885Z,100727.80
2018-10-18T07:30:51.494Z,100729.25
2018-10-18T07:33:20.457Z,100737.20
2018-10-18T07:35:49.072Z,100739.89
2018-10-18T07:38:17.616Z,100735.94
2018-10-18T07:40:46.448Z,100744.47
2018-10-18T07:43:15.009Z,100738.61
2018-10-18T07:45:43.760Z,100744.24
2018-10-18T07:48:12.629Z,100743.14
2018-10-18T07:50:41.321Z,100751.68
2018-10-18T07:53:10.006Z,100758.63
2018-10-18T07:55:38.527Z,100760.54
2018-10-18T07:58:07.354Z,100756.81
2018-10-18T08:00:36.128Z,100767.48
2018-10-18T08:03:05.082Z,100768.91
2018-10-18T08:05:33.717Z,100763.53
2018-10-18T08:08:02.353Z,100768.20
2018-10-18T08:10:31.028Z,100769.06
2018-10-18T08:12:59.627Z,100759.40
2018-10-18T08:15:28.198Z,100768.28
2018-10-18T08:17:56.834Z,100765.64
2018-10-18T08:20:25.440Z,100758.14
2018-10-18T08:22:54.206Z,100766.16
2018-10-18T08:25:22.829Z,100768.39
2018-10-18T08:27:51.398Z,100764.88
2018-10-18T08:30:20.001Z,100766.71
2018-10-18T08:32:48.637Z,100759.82
2018-10-18T08:35:17.282Z,100764.29
2018-10-18T08:37:45.918Z,100765.50
2018-10-18T08:40:14.619Z,100763.14
2018-10-18T08:42:43.165Z,100758.82
2018-10-18T08:45:12.492Z,100762.97
2018-10-18T08:47:41.220Z,100772.92
2018-10-18T08:50:11.690Z,100766.88
2018-10-18T08:52:40.580Z,100768.25
2018-10-18T08:55:11.985Z,100770.79
2018-10-18T08:57:40.510Z,100772.96
2018-10-18T09:00:10.702Z,100768.07
2018-10-18T09:02:39.850Z,100768.08
2018-10-18T09:05:09.072Z,100774.10
2018-10-18T09:07:38.189Z,100775.70
2018-10-18T09:10:07.952Z,100765.39
2018-10-18T09:12:37.097Z,100759.55
2018-10-18T09:15:07.173Z,100765.95
2018-10-18T09:17:36.209Z,100768.03
2018-10-18T09:20:05.353Z,100761.70
2018-10-18T09:22:34.568Z,100758.89
2018-10-18T09:25:03.301Z,100769.25
2018-10-18T09:27:31.892Z,100766.34
2018-10-18T09:30:00.500Z,100769.74
2018-10-18T09:32:29.148Z,100768.80
2018-10-18T09:34:57.876Z,100762.03
2018-10-18T09:37:26.468Z,100763.55
2018-10-18T09:39:55.125Z,100759.48
2018-10-18T09:42:23.664Z,100753.16
2018-10-18T09:44:52.415Z,100744.30
2018-10-18T09:47:20.940Z,100744.06
2018-10-18T09:49:49.605Z,100753.70
2018-10-18T09:52:18.180Z,100754.98
2018-10-18T09:54:46.809Z,100747.62
2018-10-18T09:57:15.365Z,100745.73
2018-10-18T09:59:44.430Z,100746.19
2018-10-18T10:02:18.233Z,100745.02
2018-10-18T10:04:46.869Z,100742.70
2018-10-18T10:07:15.492Z,100745.87
2018-10-18T10:09:43.984Z,100754.17
2018-10-18T10:12:12.750Z,100749.42
2018-10-18T10:14:41.488Z,100755.44
2018-10-18T10:17:10.224Z,100749.60
2018-10-18T10:19:38.761Z,100748.23
2018-10-18T10:22:07.512Z,100756.87
2018-10-18T10:24:36.100Z,100747.77
2018-10-18T10:27:04.733Z,100754.56
2018-10-18T10:29:33.304Z,100750.62
2018-10-18T10:32:01.869Z,100747.03
2018-10-18T10:34:30.940Z,100744.59
2018-10-18T10:36:59.629Z,100749.02
2018-10-18T10:39:28.230Z,100737.86
2018-10-18T10:41:56.928Z,100728.19
2018-10-18T10:44:25.460Z,100734.41
2018-10-18T10:46:54.040Z,100724.89
2018-10-18T10:49:23.125Z,100723.54
2018-10-18T10:51:51.915Z,100731.52
2018-10-18T10:54:20.496Z,100721.58
2018-10-18T10:56:49.240Z,100726.80
2018-10-18T10:59:19.217Z,100726.75
2018-10-18T11:01:48.004Z,100717.84
2018-10-18T11:04:16.650Z,100719.72
2018-10-18T11:06:45.349Z,100707.42
2018-10-18T11:09:14.013Z,100706.70
2018-10-18T11:11:42.941Z,100703.73
2018-10-18T11:14:11.620Z,100714.09
2018-10-18T11:16:40.221Z,100710.84
2018-10-18T11:19:09.032Z,100714.73
2018-10-18T11:21:37.644Z,100710.36
2018-10-18T11:24:06.367Z,100706.84
2018-10-18T11:26:34.946Z,100710.17
2018-10-18T11:29:03.615Z,100701.88
2018-10-18T11:31:32.161Z,100695.13
2018-10-18T11:34:01.016Z,100697.67
2018-10-18T11:36:29.724Z,100694.08
2018-10-18T11:38:58.270Z,100691.77
2018-10-18T11:41:27.455Z,100684.63
2018-10-18T11:43:56.012Z,100687.30
2018-10-18T11:46:24.665Z,100681.56
2018-10-18T11:48:53.805Z,100688.67
2018-10-18T11:51:22.523Z,100689.12
2018-10-18T11:53:51.133Z,100683.64
2018-10-18T11:56:19.713Z,100684.50
2018-10-18T11:58:48.320Z,100674.58
2018-10-18T12:01:17.112Z,100679.48
2018-10-18T12:03:46.007Z,100674.81
2018-10-18T12:06:14.605Z,100666.69
2018-10-18T12:08:43.161Z,100667.94
2018-10-18T12:11:11.963Z,100673.20
2018-10-18T12:13:41.322Z,100661.47
2018-10-18T12:16:10.297Z,100664.84
2018-10-18T12:18:38.953Z,100666.02
2018-10-18T12:21:07.685Z,100667.69
2018-10-18T12:23:36.348Z,100664.89
2018-10-18T12:26:05.337Z,100657.65
2018-10-18T12:28:34.253Z,100653.50
2018-10-18T12:31:03.064Z,100661.78
2018-10-18T12:33:31.956Z,100663.81
2018-10-18T12:36:00.522Z,100663.52
2018-10-18T12:38:29.317Z,100670.92
2018-10-18T12:40:58.285Z,100664.00
2018-10-18T12:43:26.793Z,100667.30
2018-10-18T12:45:55.465Z,100666.41
2018-10-18T12:48:33.847Z,100661.69
2018-10-18T12:51:02.317Z,100664.78
2018-10-18T12:53:31.032Z,100662.36
2018-10-18T12:56:00.035Z,100661.42
2018-10-18T12:58:28.643Z,100669.80
2018-10-18T13:00:57.294Z,100660.73
2018-10-18T13:03:26.057Z,100667.77
2018-10-18T13:05:54.679Z,100665.39
2018-10-18T13:08:23.230Z,100664.17
2018-10-18T13:10:52.069Z,100664.48
2018-10-18T13:13:20.652Z,100659.53
2018-10-18T13:15:49.334Z,100655.03
2018-10-18T13:18:18.849Z,100653.59
2018-10-18T13:20:47.448Z,100653.86
2018-10-18T13:23:16.113Z,100657.53
2018-10-18T13:25:44.876Z,100655.42
2018-10-18T13:28:13.557Z,100667.95
2018-10-18T13:30:42.209Z,100661.69
2018-10-18T13:33:10.997Z,100666.77
2018-10-18T13:35:39.647Z,100668.52
2018-10-18T13:38:08.320Z,100664.48
2018-10-18T13:40:37.276Z,100668.25
2018-10-18T13:43:06.048Z,100663.70
2018-10-18T13:45:34.693Z,100670.95
2018-10-18T13:48:03.737Z,100672.78
2018-10-18T13:50:32.376Z,100671.89
2018-10-18T13:53:01.369Z,100670.80
2018-10-18T13:55:30.140Z,100674.47
2018-10-18T13:57:58.722Z,100679.34
2018-10-18T14:00:30.253Z,100681.64
2018-10-18T14:02:58.959Z,100677.97
2018-10-18T14:05:28.088Z,100680.55
2018-10-18T14:07:57.312Z,100684.67
2018-10-18T14:13:06.078Z,100677.05
2018-10-18T14:15:34.863Z,100673.58
2018-10-18T14:18:03.498Z,100677.95
2018-10-18T14:20:33.179Z,100681.23
2018-10-18T14:23:02.017Z,100683.73
2018-10-18T14:25:30.628Z,100674.92
2018-10-18T14:27:59.209Z,100674.04
2018-10-18T14:30:27.968Z,100674.38
2018-10-18T14:32:56.640Z,100678.19
2018-10-18T14:35:25.364Z,100673.86
2018-10-18T14:37:54.072Z,100676.27
2018-10-18T14:40:22.702Z,100682.66
2018-10-18T14:42:51.440Z,100672.49
2018-10-18T14:45:20.111Z,100677.47
2018-10-18T14:47:48.830Z,100680.78
2018-10-18T14:50:17.644Z,100676.83
2018-10-18T14:52:46.285Z,100682.27
2018-10-18T14:55:14.964Z,100680.73
2018-10-18T14:57:43.652Z,100683.95
2018-10-18T15:00:13.425Z,100686.74
2018-10-18T15:02:42.222Z,100686.19
2018-10-18T15:05:11.850Z,100685.73
2018-10-18T15:07:41.052Z,100690.92
2018-10-18T15:10:13.181Z,100682.96
2018-10-18T15:12:42.290Z,100689.04
2018-10-18T15:15:12.304Z,100694.02
2018-10-18T15:17:41.112Z,100691.14
2018-10-18T15:20:10.765Z,100689.48
2018-10-18T15:22:40.741Z,100687.78
2018-10-18T15:25:10.492Z,100690.94
2018-10-18T15:27:40.232Z,100683.95
2018-10-18T15:30:09.835Z,100693.95
2018-10-18T15:32:39.192Z,100693.95
2018-10-18T15:35:09.309Z,100691.70
2018-10-18T15:37:45.843Z,100691.44
2018-10-18T15:40:14.468Z,100693.92
2018-10-18T15:42:43.126Z,100691.60
2018-10-18T15:45:11.858Z,100698.56
2018-10-18T15:47:40.558Z,100699.38
2018-10-18T15:50:10.856Z,100706.04
2018-10-18T15:52:39.417Z,100702.27
2018-10-18T15:55:08.657Z,100701.66
2018-10-18T15:57:37.305Z,100707.87
2018-10-18T16:00:08.107Z,100709.91
2018-10-18T16:02:36.742Z,100704.31
2018-10-18T16:05:05.892Z,100710.34
2018-10-18T16:07:34.662Z,100718.64
2018-10-18T16:10:03.514Z,100716.42
2018-10-18T16:12:32.159Z,100720.57
2018-10-18T16:15:00.853Z,100712.97
2018-10-18T16:17:29.462Z,100722.16
2018-10-18T16:19:58.081Z,100719.84
2018-10-18T16:22:26.719Z,100724.98
2018-10-18T16:24:55.285Z,100731.17
2018-10-18T16:27:24.813Z,100741.44
2018-10-18T16:29:53.396Z,100743.03
2018-10-18T16:32:22.013Z,100738.67
2018-10-18T16:34:50.724Z,100750.72
2018-10-18T16:37:19.537Z,100751.59
2018-10-18T16:39:48.061Z,100755.60
2018-10-18T16:42:16.701Z,100755.30
2018-10-18T16:44:45.413Z,100756.66
2018-10-18T16:47:14.061Z,100757.89
2018-10-18T16:49:42.703Z,100763.98
2018-10-18T16:52:11.592Z,100768.17
2018-10-18T16:54:40.336Z,100772.66
2018-10-18T16:57:08.945Z,100768.20
2018-10-18T16:59:37.682Z,100769.99
2018-10-18T17:02:06.682Z,100769.63
2018-10-18T17:04:35.379Z,100773.20
2018-10-18T17:07:04.124Z,100774.14
2018-10-18T17:09:32.668Z,100777.58
2018-10-18T17:12:01.444Z,100778.45
2018-10-18T17:14:30.249Z,100780.05
2018-10-18T17:16:58.877Z,100782.47
2018-10-18T17:19:27.490Z,100789.25
2018-10-18T17:21:56.138Z,100788.23
2018-10-18T17:24:24.703Z,100785.84
2018-10-18T17:26:53.308Z,100781.35
2018-10-18T17:29:21.993Z,100788.50
2018-10-18T17:31:50.556Z,100781.94
2018-10-18T17:34:19.607Z,100787.48
2018-10-18T17:36:48.162Z,100789.37
2018-10-18T17:39:20.342Z,100794.91
2018-10-18T17:41:48.992Z,100790.45
2018-10-18T17:44:17.638Z,100791.86
2018-10-18T17:46:46.285Z,100788.11
2018-10-18T17:49:15.017Z,100796.42
2018-10-18T17:51:43.591Z,100790.17
2018-10-18T17:54:12.169Z,100794.39
2018-10-18T17:56:40.820Z,100793.35
2018-10-18T17:59:09.423Z,100793.79
2018-10-18T18:01:38.025Z,100790.11
2018-10-18T18:04:07.224Z,100793.60
2018-10-18T18:06:35.921Z,100793.14
2018-10-18T18:09:05.066Z,100795.16
2018-10-18T18:11:33.913Z,100798.69
2018-10-18T18:14:02.756Z,100796.85
2018-10-18T18:16:31.780Z,100801.21
2018-10-18T18:19:01.012Z,100801.84
2018-10-18T18:21:29.574Z,100806.52
2018-10-18T18:23:58.172Z,100813.18
2018-10-18T18:26:32.657Z,100814.59
2018-10-18T18:28:55.585Z,100815.18
2018-10-18T18:31:24.418Z,100815.12
2018-10-18T18:33:53.233Z,100817.34
2018-10-18T18:36:22.190Z,100822.67
2018-10-18T18:38:50.846Z,100823.94
2018-10-18T18:41:19.624Z,100829.87
2018-10-18T18:43:48.228Z,100828.23
2018-10-18T18:46:16.792Z,100836.19
2018-10-18T18:48:45.571Z,100834.80
2018-10-18T18:51:14.220Z,100840.39
2018-10-18T18:53:42.740Z,100841.59
2018-10-18T18:56:11.603Z,100842.66
2018-10-18T18:58:40.189Z,100844.92
2018-10-18T19:01:08.904Z,100843.87
2018-10-18T19:03:37.727Z,100846.16
2018-10-18T19:06:06.380Z,100846.20
2018-10-18T19:08:34.949Z,100843.48
2018-10-18T19:11:03.799Z,100848.95
2018-10-18T19:13:32.428Z,100849.01
2018-10-18T19:16:01.100Z,100851.94
2018-10-18T19:18:29.909Z,100849.78
2018-10-18T19:20:58.528Z,100851.08
2018-10-18T19:23:27.292Z,100850.20
2018-10-18T19:25:56.049Z,100853.63
2018-10-18T19:28:24.669Z,100858.35
2018-10-18T19:30:53.657Z,100861.59
2018-10-18T19:33:22.249Z,100854.81
2018-10-18T19:35:51.047Z,100850.75
2018-10-18T19:38:19.786Z,100859.48
2018-10-18T19:40:51.360Z,100861.59
2018-10-18T19:43:19.932Z,100861.80
2018-10-18T19:45:48.704Z,100865.09
2018-10-18T19:48:17.750Z,100867.76
2018-10-18T19:50:46.417Z,100864.05
2018-10-18T19:53:14.997Z,100864.02
2018-10-18T19:55:43.941Z,100865.69
2018-10-18T19:58:12.554Z,100870.34
2018-10-18T20:00:41.132Z,100881.77
2018-10-18T20:03:09.849Z,100884.08
2018-10-18T20:05:38.372Z,100889.54
2018-10-18T20:08:07.002Z,100894.41
2018-10-18T20:10:35.712Z,100893.15
2018-10-18T20:13:04.489Z,100895.72
2018-10-18T20:15:33.064Z,100906.55
2018-10-18T20:18:02.089Z,100907.55
2018-10-18T20:20:30.672Z,100906.09
2018-10-18T20:22:59.268Z,100908.34
2018-10-18T20:25:28.038Z,100907.96
2018-10-18T20:27:56.645Z,100907.40
2018-10-18T20:30:25.261Z,100908.00
2018-10-18T20:32:53.945Z,100906.82
2018-10-18T20:35:22.574Z,100905.83
2018-10-18T20:37:51.104Z,100903.48
2018-10-18T20:40:19.905Z,100902.87
2018-10-18T20:42:48.656Z,100907.44
2018-10-18T20:45:22.594Z,100904.89
2018-10-18T20:47:51.316Z,100902.76
2018-10-18T20:50:19.784Z,100907.20
2018-10-18T20:52:48.521Z,100910.02
2018-10-18T20:55:17.078Z,100916.98
2018-10-18T20:57:45.709Z,100921.01
2018-10-18T21:00:14.446Z,100918.00
2018-10-18T21:02:43.088Z,100923.89
2018-10-18T21:05:11.692Z,100917.66
2018-10-18T21:07:40.413Z,100923.97
2018-10-18T21:10:11.889Z,100927.81
2018-10-18T21:12:40.440Z,100917.31
2018-10-18T21:15:09.131Z,100925.51
2018-10-18T21:17:37.605Z,100916.55
2018-10-18T21:20:06.617Z,100914.76
2018-10-18T21:22:35.444Z,100915.63
2018-10-18T21:25:04.344Z,100916.68
2018-10-18T21:27:33.192Z,100913.11
2018-10-18T21:30:01.848Z,100910.48
2018-10-18T21:32:30.424Z,100916.43
2018-10-18T21:34:59.287Z,100912.83
2018-10-18T21:37:27.838Z,100910.52
2018-10-18T21:39:56.482Z,100909.55
2018-10-18T21:42:25.172Z,100914.89
2018-10-18T21:44:54.485Z,100907.34
2018-10-18T21:47:23.592Z,100907.59
2018-10-18T21:49:52.485Z,100904.51
2018-10-18T21:52:21.133Z,100905.52
2018-10-18T21:54:49.736Z,100904.19
2018-10-18T21:57:18.477Z,100903.31
2018-10-18T21:59:47.166Z,100901.95
2018-10-18T22:02:15.748Z,100906.88
2018-10-18T22:04:44.484Z,100900.97
2018-10-18T22:07:13.073Z,100906.29
2018-10-18T22:09:41.654Z,100911.92
2018-10-18T22:12:10.290Z,100912.63
2018-10-18T22:14:38.906Z,100913.33
2018-10-18T22:17:07.516Z,100906.22
2018-10-18T22:19:36.370Z,100912.94
2018-10-18T22:22:05.124Z,100911.05
2018-10-18T22:24:33.728Z,100905.73
2018-10-18T22:27:02.554Z,100909.30
2018-10-18T22:29:31.120Z,100908.30
2018-10-18T22:31:59.702Z,100900.25
2018-10-18T22:34:28.441Z,100898.73
2018-10-18T22:36:56.997Z,100898.58
2018-10-18T22:39:25.625Z,100904.58
2018-10-18T22:41:54.448Z,100915.61
2018-10-18T22:44:22.984Z,100906.37
2018-10-18T22:46:51.600Z,100904.66
2018-10-18T22:49:20.429Z,100908.91
2018-10-18T22:51:48.980Z,100904.50
2018-10-18T22:54:17.541Z,100894.23
2018-10-18T22:56:46.230Z,100899.44
2018-10-18T22:59:14.813Z,100896.60
2018-10-18T23:01:43.596Z,100888.93
2018-10-18T23:04:12.160Z,100883.71
2018-10-18T23:06:40.776Z,100884.66
2018-10-18T23:09:11.638Z,100886.78
2018-10-18T23:11:40.257Z,100891.11
2018-10-18T23:14:09.849Z,100886.69
2018-10-18T23:16:39.179Z,100883.84
2018-10-18T23:19:08.857Z,100888.55
2018-10-18T23:21:37.409Z,100891.94
2018-10-18T23:24:06.341Z,100893.59
2018-10-18T23:26:34.921Z,100891.06
2018-10-18T23:29:03.494Z,100889.18
2018-10-18T23:31:32.081Z,100896.53
2018-10-18T23:34:00.649Z,100895.98
2018-10-18T23:36:29.256Z,100896.11
2018-10-18T23:38:57.902Z,100891.57
2018-10-18T23:41:26.514Z,100892.72
2018-10-18T23:43:55.201Z,100890.59
2018-10-18T23:46:23.841Z,100891.84
2018-10-18T23:48:52.488Z,100895.52
2018-10-18T23:51:21.025Z,100893.27
2018-10-18T23:53:49.685Z,100894.73
2018-10-18T23:56:18.446Z,100892.84
2018-10-18T23:58:47.049Z,100895.57
